Station: Yamba  

  Atmospheric Gas Attenuation - ITU Rec 676-11   ----------------- dB/100km -----------------
Date Time Temp RH % AH g/m3 Dew Point Wind Direction Speed kph Gust kph Barometer mB Rainfall Since 9am 24GHz 47GHz 76GHz 122GHz 134GHz 241GHz
08/05 12:30 20.3 32 5.63 3.1 11 17 1018.1 0 13.1 20.1 26.6 69.1 56.8 193.4
08/05 12:20 20.1 32 5.56 2.9 7 9 1018.3 0 12.9 20.0 26.4 68.7 56.2 191.2
08/05 12:10 19.9 38 6.53 5.2 13 15 1018.6 0 14.9 21.4 29.7 77.6 67.1 229.5
08/05 12:00 19.9 33 5.67 3.2 11 15 1018.7 0 13.1 20.2 26.8 69.8 57.6 196.0
08/05 11:50 20 31 5.36 2.4 11 13 1018.9 0 12.5 19.8 25.8 67.0 54.1 183.9
08/05 11:40 19.1 32 5.25 2 11 13 1019 0 12.3 19.8 25.7 66.8 53.6 181.7
08/05 11:30 19.1 33 5.41 2.5 7 13 1019.1 0 12.6 20.1 26.2 68.2 55.3 187.9
08/05 11:20 18.4 33 5.19 1.9 6 7 1019.3 0 12.2 19.9 25.7 66.9 53.4 181.0
08/05 11:10 18.1 30 4.63 0.3 9 11 1019.6 0 11.0 19.2 24.0 62.2 47.5 160.3
08/05 11:00 17.6 31 4.65 0.3 9 15 1019.8 0 11.1 19.4 24.2 62.8 48.0 162.1
08/05 10:50 17.3 34 5.01 1.3 9 13 1020 0 11.9 19.9 25.5 66.2 52.1 176.5
08/05 10:40 16.7 32 4.55 -0.1 9 11 1020.1 0 10.9 19.4 24.2 62.6 47.5 160.0
08/05 10:30 17.1 37 5.39 2.3 11 20 1020 0 12.7 20.5 26.8 69.8 56.5 191.8
08/05 10:20 16.7 35 4.97 1.2 9 13 1020.3 0 11.8 20.0 25.6 66.4 52.1 176.3
08/05 10:10 16.5 38 5.34 2.2 9 11 1020.5 0 12.6 20.6 26.9 69.9 56.4 191.3
08/05 10:00 15.9 38 5.15 1.6 11 19 1020.4 0 12.2 20.4 26.4 68.6 54.6 185.2
08/05 09:50 15.7 39 5.22 1.8 13 17 1020.5 0 12.3 20.6 26.7 69.5 55.6 188.4
08/05 09:40 15.3 40 5.22 1.8 9 11 1020.5 0 12.4 20.7 26.9 69.8 55.9 189.3
08/05 09:30 15.1 41 5.29 2 11 20 1020.4 0 12.5 20.8 27.2 70.6 56.8 192.6
08/05 09:20 14.5 38 4.73 0.4 15 19 1020.5 0 11.4 20.2 25.4 66.0 50.8 171.5
08/05 09:10 14.3 40 4.91 0.9 15 19 1020.6 0 11.7 20.5 26.1 67.8 53.0 179.2
08/05 09:00 14.1 42 5.1 1.4 9 19 1020.5 0 12.1 20.8 26.8 69.7 55.3 187.3
08/05 08:50 13.7 42 4.97 1 13 15 1020.5 0 11.9 20.7 26.5 68.8 54.1 182.9
08/05 08:40 13.2 42 4.82 0.6 17 20 1020.4 0 11.6 20.6 26.2 67.9 52.7 177.9
08/05 08:30 12.7 42 4.68 0.1 13 22 1020.4 0 11.3 20.5 25.8 67.0 51.4 173.3
08/05 08:20 12.5 45 4.95 0.9 11 15 1020.7 0 11.9 20.9 26.8 69.7 54.7 184.8
08/05 08:10 12.2 44 4.75 0.3 13 17 1020.7 0 11.5 20.7 26.2 68.1 52.5 177.3
08/05 08:00 12 46 4.9 0.8 11 19 1020.6 0 11.8 21.0 26.8 69.6 54.4 183.9
08/05 07:50 11.8 47 4.95 0.9 11 13 1020.6 0 11.9 21.1 27.1 70.3 55.1 186.4
08/05 07:40 11.5 47 4.86 0.6 9 11 1020.5 0 11.7 21.0 26.8 69.7 54.3 183.3
08/05 07:30 11.3 48 4.9 0.7 9 17 1020.3 0 11.8 21.1 27.0 70.2 54.9 185.4
08/05 07:20 11.1 49 4.94 0.8 9 11 1020.3 0 11.9 21.2 27.3 70.8 55.5 187.5
08/05 07:10 10.7 49 4.81 0.4 9 13 1020.2 0 11.6 21.1 26.9 69.9 54.2 183.0
08/05 07:00 10.5 47 4.56 -0.3 7 15 1020 0 11.1 20.8 26.1 67.6 51.4 173.0
08/05 06:50 10.3 49 4.69 0.1 11 15 1020.2 0 11.4 21.0 26.6 69.1 53.1 178.9
08/05 06:40 10.1 49 4.63 -0.1 11 15 1020.2 0 11.3 21.0 26.5 68.7 52.5 176.8
08/05 06:30 10.2 48 4.57 -0.3 13 20 1020.1 0 11.1 20.9 26.2 68.0 51.7 174.1
08/05 06:20 10.3 46 4.41 -0.8 15 20 1020 0 10.8 20.6 25.6 66.4 49.7 167.2
08/05 06:10 10.4 44 4.24 -1.3 11 15 1020 0 10.4 20.4 25.0 64.7 47.7 160.0
08/05 06:00 10.6 45 4.39 -0.8 11 24 1019.8 0 10.8 20.5 25.4 65.9 49.3 165.7
08/05 05:50 10.8 45 4.45 -0.6 11 20 1019.8 0 10.9 20.6 25.6 66.3 49.9 167.8
08/05 05:40 10.9 42 4.18 -1.5 13 22 1019.6 0 10.3 20.1 24.6 63.7 46.7 156.5
08/05 05:30 10.8 42 4.15 -1.6 11 20 1019.4 0 10.2 20.1 24.5 63.5 46.4 155.5
08/05 05:20 10.9 41 4.08 -1.8 13 22 1019.2 0 10.1 20.0 24.2 62.7 45.5 152.4
08/05 05:10 10.8 42 4.15 -1.6 11 17 1019.1 0 10.2 20.1 24.5 63.5 46.4 155.4
08/05 05:00 10.8 42 4.15 -1.6 11 19 1019.2 0 10.2 20.1 24.5 63.5 46.4 155.4
08/05 04:50 10.9 40 3.98 -2.1 11 19 1019.3 0 9.9 19.9 23.9 61.8 44.4 148.4
08/05 04:40 10.9 41 4.08 -1.8 9 15 1019.2 0 10.1 20.0 24.2 62.7 45.5 152.4
08/05 04:30 10.9 40 3.98 -2.1 7 19 1018.8 0 9.9 19.8 23.9 61.8 44.3 148.3
08/05 04:20 10.7 41 4.03 -2 7 11 1018.9 0 10.0 20.0 24.1 62.4 45.0 150.7
08/05 04:10 11.1 40 4.03 -2 11 17 1018.7 0 10.0 19.9 24.0 62.1 44.8 149.9
08/05 04:00 11.1 40 4.03 -2 9 17 1018.7 0 10.0 19.9 24.0 62.1 44.8 149.9
08/05 03:50 11.3 40 4.08 -1.8 9 15 1018.8 0 10.1 19.9 24.1 62.4 45.3 151.6
08/05 03:40 11.6 38 3.95 -2.2 13 15 1018.9 0 9.8 19.7 23.6 61.0 43.6 145.9
08/05 03:30 11.7 37 3.87 -2.5 9 17 1018.8 0 9.6 19.5 23.3 60.2 42.7 142.5
08/05 03:20 11.6 38 3.95 -2.2 11 19 1018.9 0 9.8 19.7 23.6 61.0 43.6 145.9
08/05 03:10 11.6 38 3.95 -2.2 7 9 1018.8 0 9.8 19.6 23.6 61.0 43.6 145.9
08/05 03:00 11.8 38 4 -2 9 17 1018.5 0 9.9 19.7 23.7 61.3 44.1 147.5
08/05 02:50 12.1 36 3.86 -2.5 17 20 1018.2 0 9.6 19.4 23.1 59.7 42.3 141.3
08/05 02:40 12.2 37 3.99 -2 13 20 1018.3 0 9.9 19.6 23.5 60.8 43.7 146.3
08/05 02:30 12.2 36 3.89 -2.4 13 24 1018.3 0 9.7 19.4 23.2 59.9 42.6 142.4
08/05 02:20 12.2 36 3.89 -2.4 15 20 1018.2 0 9.7 19.4 23.2 59.9 42.6 142.4
08/05 02:10 12.4 35 3.82 -2.6 13 17 1018 0 9.5 19.3 22.9 59.1 41.7 139.2
08/05 02:00 12.4 36 3.93 -2.2 13 26 1017.7 0 9.7 19.4 23.2 60.1 42.9 143.5
08/05 01:50 12.6 35 3.87 -2.4 11 20 1017.9 0 9.6 19.3 23.0 59.4 42.2 140.8
08/05 01:40 12.8 34 3.81 -2.6 11 20 1017.7 0 9.5 19.2 22.7 58.7 41.4 138.1
08/05 01:30 12.8 36 4.03 -1.9 11 26 1017.7 0 9.9 19.5 23.5 60.7 43.8 146.7
08/05 01:20 12.8 36 4.03 -1.9 13 17 1017.9 0 9.9 19.5 23.5 60.7 43.8 146.8
08/05 01:10 13 35 3.97 -2.1 9 15 1017.8 0 9.8 19.3 23.2 60.0 43.1 144.1
08/05 01:00 13.3 37 4.27 -1.1 11 20 1017.9 0 10.4 19.7 24.1 62.5 46.2 155.3
08/05 00:50 13.6 35 4.12 -1.6 11 17 1017.9 0 10.1 19.4 23.6 61.0 44.4 148.9
08/05 00:40 13.7 34 4.03 -1.9 11 19 1018 0 9.9 19.3 23.2 60.1 43.4 145.2
08/05 00:20 14.1 35 4.25 -1.1 11 19 1018.1 0 10.4 19.5 23.9 61.8 45.6 153.1
08/05 00:10 14.2 33 4.03 -1.8 13 20 1018.1 0 9.9 19.2 23.1 59.7 43.1 144.3
08/05 00:00 14.5 30 3.73 -2.8 11 20 1018.3 0 9.3 18.7 22.0 56.9 39.7 132.4
07/05 23:50 14.6 30 3.75 -2.8 6 7 1018.1 0 9.3 18.7 22.1 57.0 39.8 132.9
07/05 23:40 14.9 30 3.82 -2.5 19 26 1018 0 9.4 18.8 22.2 57.4 40.4 135.1
07/05 23:30 15.1 29 3.74 -2.8 17 30 1018.2 0 9.3 18.6 21.9 56.5 39.5 131.8
07/05 23:20 15.1 30 3.87 -2.3 15 17 1018.1 0 9.5 18.8 22.3 57.7 40.9 136.7
07/05 23:10 15.3 31 4.05 -1.7 11 15 1018.2 0 9.9 19.0 22.9 59.1 42.7 143.2
07/05 23:00 15.5 30 3.97 -2 13 24 1018.2 0 9.7 18.9 22.5 58.3 41.8 139.8
07/05 22:50 16 28 3.81 -2.5 17 22 1018.1 0 9.4 18.5 21.9 56.5 39.8 133.0
07/05 22:40 16.3 28 3.88 -2.2 15 24 1017.7 0 9.5 18.6 22.0 56.9 40.4 135.1
07/05 22:30 16.7 30 4.26 -0.9 19 32 1017.7 0 10.3 19.0 23.1 59.9 44.2 148.7
07/05 22:20 16.8 31 4.43 -0.4 19 28 1017.6 0 10.7 19.2 23.7 61.3 46.0 154.9
07/05 22:10 16.9 37 5.32 2.1 15 20 1017.5 0 12.5 20.4 26.6 69.1 55.7 189.1
07/05 22:00 17.3 38 5.6 2.9 13 20 1017.6 0 13.1 20.7 27.4 71.3 58.6 199.3
07/05 21:50 17.4 40 5.93 3.7 15 20 1017.2 0 13.8 21.1 28.5 74.2 62.2 212.1
07/05 21:40 17.8 41 6.22 4.4 11 17 1017 0 14.4 21.4 29.4 76.5 65.2 222.6
07/05 21:30 18.1 43 6.64 5.3 15 30 1017 0 15.2 21.9 30.7 80.2 69.8 238.8
07/05 21:20 18.3 44 6.88 5.8 15 20 1016.9 0 15.7 22.2 31.5 82.2 72.4 248.0
07/05 21:10 18.6 41 6.52 5.1 17 22 1016.8 0 15.0 21.6 30.1 78.5 68.0 232.4
07/05 21:00 18.5 41 6.49 5 9 19 1016.8 0 14.9 21.6 30.0 78.4 67.7 231.5
07/05 20:50 18.4 39 6.13 4.2 9 11 1016.7 0 14.2 21.1 28.8 75.1 63.7 217.4
07/05 20:40 18.8 37 5.96 3.8 11 15 1016.3 0 13.8 20.8 28.1 73.2 61.5 209.5
07/05 20:30 19 37 6.03 4 9 20 1016 0 13.9 20.8 28.2 73.6 62.1 211.7
07/05 20:20 18.6 40 6.37 4.8 7 9 1015.9 0 14.7 21.4 29.5 77.1 66.2 226.2
07/05 20:10 18.5 42 6.64 5.4 9 13 1015.6 0 15.2 21.8 30.5 79.7 69.4 237.3
07/05 20:00 18.3 41 6.41 4.8 9 17 1015.6 0 14.8 21.5 29.8 77.7 66.9 228.6
07/05 19:50 18.6 40 6.37 4.8 7 9 1015.3 0 14.7 21.4 29.5 77.0 66.2 226.1

Last Refresh: 08-May-2026 12:07:59

Bureau of Meteorology